Accueil
METAR-TAF:

METAR-TAF

Aéroports :

Aéroport de Miyazaki

Miyazaki, Japon

latitude: 31-52N, longitude: 131-27E, altitude: 6 m

Observation

Le bulletin a été fait il y a 1 heure et 9 minutes, à 12:00 UTC
Vent 11 kt de ouest
Température 9°C
Humidité 61%
Pression 1021 hPa
Visibilité: 9000 m
Quelques nuages à une hauteur de 3000 ft

METAR: RJFM 201200Z 27011KT 9000 FEW030 09/02 Q1021

Heure: 22:09 (13:09 UTC)

Prévision

Le bulletin a été fait il y a 2 heures et 0 minutes, à 11:09 UTC
Prévision valable du 20 à 12 UTC au 21 à 18 UTC
Vent 10 kt de ouest
Visibilité 10 km ou plus
Quelques nuages à une hauteur de 3000 ft
Evoluant progressivement
du 21 à 00 UTC au 21 à 03 UTC
Vent 5 kt de est/nord-est
Evoluant progressivement
du 21 à 09 UTC au 21 à 12 UTC
Vent 7 kt de ouest/nord-ouest

TAF: RJFM 201109Z 2012/2118 28010KT 9999 FEW030 BECMG 2100/2103 06005KT BECMG 2109/2112 29007KT

Observations et prévisions météorologiques de plus de 4000 aéroports (messages METAR et TAF).

Les stations disponibles sont représentées par des disques jaunes et rouges sur la carte.

Passer la souris dessus pour voir le nom de la station.

Cliquer dessus pour voir les observations et prévisions météorologiques.

Pour changer de carte: cliquez sur les boutons verts avec une croix noire pour zoomer, sur le bouton vert avec un tiret pour effectuer un zoom arrière, ou sur les flèches vertes pour les cartes adjacentes.


METAR-TAF: